sensor_id;sensor_type;location;lat;lon;timestamp;P1;durP1;ratioP1;P2;durP2;ratioP2
77136;SDS011;66102;48.542;-2.970;2023-03-14T00:00:15;11.70;;;2.45;;
77136;SDS011;66102;48.542;-2.970;2023-03-14T00:02:41;12.38;;;2.08;;
77136;SDS011;66102;48.542;-2.970;2023-03-14T00:05:07;10.15;;;1.90;;
77136;SDS011;66102;48.542;-2.970;2023-03-14T00:07:34;12.07;;;2.67;;
77136;SDS011;66102;48.542;-2.970;2023-03-14T00:10:05;14.20;;;2.35;;
77136;SDS011;66102;48.542;-2.970;2023-03-14T00:12:31;19.27;;;2.47;;
77136;SDS011;66102;48.542;-2.970;2023-03-14T00:14:57;18.05;;;2.78;;
77136;SDS011;66102;48.542;-2.970;2023-03-14T00:17:25;12.88;;;2.17;;
77136;SDS011;66102;48.542;-2.970;2023-03-14T00:19:51;10.02;;;2.25;;
77136;SDS011;66102;48.542;-2.970;2023-03-14T00:22:19;12.70;;;2.45;;
77136;SDS011;66102;48.542;-2.970;2023-03-14T00:24:45;14.27;;;2.47;;
77136;SDS011;66102;48.542;-2.970;2023-03-14T00:27:11;12.30;;;1.90;;
77136;SDS011;66102;48.542;-2.970;2023-03-14T00:29:37;8.93;;;2.08;;
77136;SDS011;66102;48.542;-2.970;2023-03-14T00:32:03;14.13;;;2.40;;
77136;SDS011;66102;48.542;-2.970;2023-03-14T00:34:29;10.75;;;2.00;;
77136;SDS011;66102;48.542;-2.970;2023-03-14T00:36:55;12.60;;;2.13;;
77136;SDS011;66102;48.542;-2.970;2023-03-14T00:39:22;8.85;;;1.48;;
77136;SDS011;66102;48.542;-2.970;2023-03-14T00:41:48;9.70;;;1.80;;
77136;SDS011;66102;48.542;-2.970;2023-03-14T00:44:14;7.18;;;1.67;;
77136;SDS011;66102;48.542;-2.970;2023-03-14T00:46:40;12.73;;;2.47;;
77136;SDS011;66102;48.542;-2.970;2023-03-14T00:49:06;11.10;;;1.73;;
77136;SDS011;66102;48.542;-2.970;2023-03-14T00:51:32;14.05;;;2.95;;
77136;SDS011;66102;48.542;-2.970;2023-03-14T00:53:59;18.83;;;2.30;;
77136;SDS011;66102;48.542;-2.970;2023-03-14T00:56:25;11.23;;;2.50;;
77136;SDS011;66102;48.542;-2.970;2023-03-14T00:58:54;13.15;;;2.47;;
77136;SDS011;66102;48.542;-2.970;2023-03-14T01:01:21;16.15;;;2.40;;
77136;SDS011;66102;48.542;-2.970;2023-03-14T01:03:47;15.82;;;2.80;;
77136;SDS011;66102;48.542;-2.970;2023-03-14T01:06:14;14.90;;;3.03;;
77136;SDS011;66102;48.542;-2.970;2023-03-14T01:08:41;14.40;;;2.67;;
77136;SDS011;66102;48.542;-2.970;2023-03-14T01:11:11;21.40;;;3.35;;
77136;SDS011;66102;48.542;-2.970;2023-03-14T01:13:38;19.27;;;4.55;;
77136;SDS011;66102;48.542;-2.970;2023-03-14T01:16:04;27.30;;;3.33;;
77136;SDS011;66102;48.542;-2.970;2023-03-14T01:18:31;18.77;;;3.47;;
77136;SDS011;66102;48.542;-2.970;2023-03-14T01:20:58;18.55;;;2.47;;
77136;SDS011;66102;48.542;-2.970;2023-03-14T01:23:24;18.75;;;3.25;;
77136;SDS011;66102;48.542;-2.970;2023-03-14T01:25:50;17.17;;;2.83;;
77136;SDS011;66102;48.542;-2.970;2023-03-14T01:28:16;22.48;;;2.75;;
77136;SDS011;66102;48.542;-2.970;2023-03-14T01:30:42;18.25;;;2.80;;
77136;SDS011;66102;48.542;-2.970;2023-03-14T01:33:08;17.73;;;2.13;;
77136;SDS011;66102;48.542;-2.970;2023-03-14T01:35:36;16.10;;;2.47;;
77136;SDS011;66102;48.542;-2.970;2023-03-14T01:38:02;14.40;;;2.35;;
77136;SDS011;66102;48.542;-2.970;2023-03-14T01:40:28;17.55;;;2.55;;
77136;SDS011;66102;48.542;-2.970;2023-03-14T01:42:55;14.90;;;2.78;;
77136;SDS011;66102;48.542;-2.970;2023-03-14T01:48:06;14.48;;;2.70;;
77136;SDS011;66102;48.542;-2.970;2023-03-14T01:50:32;13.93;;;2.70;;
77136;SDS011;66102;48.542;-2.970;2023-03-14T01:52:58;22.60;;;2.70;;
77136;SDS011;66102;48.542;-2.970;2023-03-14T01:55:24;18.05;;;2.50;;
77136;SDS011;66102;48.542;-2.970;2023-03-14T01:57:55;17.27;;;3.20;;
77136;SDS011;66102;48.542;-2.970;2023-03-14T02:00:23;16.52;;;2.45;;
77136;SDS011;66102;48.542;-2.970;2023-03-14T02:02:50;15.38;;;3.00;;
77136;SDS011;66102;48.542;-2.970;2023-03-14T02:05:19;16.40;;;3.25;;
77136;SDS011;66102;48.542;-2.970;2023-03-14T02:07:46;14.30;;;2.42;;
77136;SDS011;66102;48.542;-2.970;2023-03-14T02:10:14;13.90;;;2.78;;
77136;SDS011;66102;48.542;-2.970;2023-03-14T02:12:43;16.27;;;2.47;;
77136;SDS011;66102;48.542;-2.970;2023-03-14T02:15:10;11.50;;;2.70;;
77136;SDS011;66102;48.542;-2.970;2023-03-14T02:17:36;14.40;;;2.33;;
77136;SDS011;66102;48.542;-2.970;2023-03-14T02:22:33;11.65;;;2.88;;
77136;SDS011;66102;48.542;-2.970;2023-03-14T02:27:28;14.30;;;2.55;;
77136;SDS011;66102;48.542;-2.970;2023-03-14T02:29:58;12.77;;;2.65;;
77136;SDS011;66102;48.542;-2.970;2023-03-14T02:32:26;16.55;;;4.32;;
77136;SDS011;66102;48.542;-2.970;2023-03-14T02:34:53;13.48;;;2.38;;
77136;SDS011;66102;48.542;-2.970;2023-03-14T02:37:20;13.77;;;2.08;;
77136;SDS011;66102;48.542;-2.970;2023-03-14T02:39:48;16.55;;;2.60;;
77136;SDS011;66102;48.542;-2.970;2023-03-14T02:42:16;13.75;;;3.42;;
77136;SDS011;66102;48.542;-2.970;2023-03-14T02:44:47;20.42;;;3.25;;
77136;SDS011;66102;48.542;-2.970;2023-03-14T02:47:14;12.55;;;2.25;;
77136;SDS011;66102;48.542;-2.970;2023-03-14T02:49:40;15.98;;;2.50;;
77136;SDS011;66102;48.542;-2.970;2023-03-14T02:52:06;12.77;;;2.08;;
77136;SDS011;66102;48.542;-2.970;2023-03-14T02:54:32;12.25;;;2.47;;
77136;SDS011;66102;48.542;-2.970;2023-03-14T02:56:58;19.23;;;2.60;;
77136;SDS011;66102;48.542;-2.970;2023-03-14T02:59:24;16.63;;;2.30;;
77136;SDS011;66102;48.542;-2.970;2023-03-14T03:01:50;17.10;;;3.03;;
77136;SDS011;66102;48.542;-2.970;2023-03-14T03:04:16;13.00;;;3.00;;
77136;SDS011;66102;48.542;-2.970;2023-03-14T03:06:42;14.30;;;2.78;;
77136;SDS011;66102;48.542;-2.970;2023-03-14T03:09:08;12.30;;;2.60;;
77136;SDS011;66102;48.542;-2.970;2023-03-14T03:11:34;20.65;;;3.33;;
77136;SDS011;66102;48.542;-2.970;2023-03-14T03:14:00;17.73;;;2.70;;
77136;SDS011;66102;48.542;-2.970;2023-03-14T03:16:26;19.48;;;3.33;;
77136;SDS011;66102;48.542;-2.970;2023-03-14T03:18:52;17.10;;;3.05;;
77136;SDS011;66102;48.542;-2.970;2023-03-14T03:21:18;18.52;;;3.30;;
77136;SDS011;66102;48.542;-2.970;2023-03-14T03:23:48;17.25;;;2.88;;
77136;SDS011;66102;48.542;-2.970;2023-03-14T03:26:14;16.20;;;2.55;;
77136;SDS011;66102;48.542;-2.970;2023-03-14T03:28:40;15.20;;;2.63;;
77136;SDS011;66102;48.542;-2.970;2023-03-14T03:31:07;10.70;;;2.13;;
77136;SDS011;66102;48.542;-2.970;2023-03-14T03:33:33;13.05;;;2.42;;
77136;SDS011;66102;48.542;-2.970;2023-03-14T03:35:59;17.33;;;3.38;;
77136;SDS011;66102;48.542;-2.970;2023-03-14T03:38:25;14.63;;;2.17;;
77136;SDS011;66102;48.542;-2.970;2023-03-14T03:40:52;12.77;;;2.88;;
77136;SDS011;66102;48.542;-2.970;2023-03-14T03:43:18;10.70;;;2.28;;
77136;SDS011;66102;48.542;-2.970;2023-03-14T03:45:44;11.80;;;2.42;;
77136;SDS011;66102;48.542;-2.970;2023-03-14T03:48:10;20.23;;;2.97;;
77136;SDS011;66102;48.542;-2.970;2023-03-14T03:50:36;18.17;;;2.55;;
77136;SDS011;66102;48.542;-2.970;2023-03-14T03:53:02;16.33;;;2.30;;
77136;SDS011;66102;48.542;-2.970;2023-03-14T03:55:28;16.58;;;3.45;;
77136;SDS011;66102;48.542;-2.970;2023-03-14T03:57:54;14.10;;;2.30;;
77136;SDS011;66102;48.542;-2.970;2023-03-14T04:00:20;15.85;;;3.13;;
77136;SDS011;66102;48.542;-2.970;2023-03-14T04:02:46;15.73;;;2.65;;
77136;SDS011;66102;48.542;-2.970;2023-03-14T04:05:12;12.57;;;2.45;;
77136;SDS011;66102;48.542;-2.970;2023-03-14T04:07:38;13.18;;;2.13;;
77136;SDS011;66102;48.542;-2.970;2023-03-14T04:10:04;13.02;;;2.10;;
77136;SDS011;66102;48.542;-2.970;2023-03-14T04:12:31;13.48;;;2.30;;
77136;SDS011;66102;48.542;-2.970;2023-03-14T04:14:57;13.52;;;1.95;;
77136;SDS011;66102;48.542;-2.970;2023-03-14T04:17:23;9.77;;;1.92;;
77136;SDS011;66102;48.542;-2.970;2023-03-14T04:19:49;10.13;;;1.95;;
77136;SDS011;66102;48.542;-2.970;2023-03-14T04:22:16;16.35;;;3.03;;
77136;SDS011;66102;48.542;-2.970;2023-03-14T04:24:42;12.15;;;1.90;;
77136;SDS011;66102;48.542;-2.970;2023-03-14T04:27:08;13.30;;;2.10;;
77136;SDS011;66102;48.542;-2.970;2023-03-14T04:29:34;14.27;;;2.65;;
77136;SDS011;66102;48.542;-2.970;2023-03-14T04:32:00;11.13;;;2.17;;
77136;SDS011;66102;48.542;-2.970;2023-03-14T04:34:26;15.45;;;2.42;;
77136;SDS011;66102;48.542;-2.970;2023-03-14T04:36:52;10.82;;;2.10;;
77136;SDS011;66102;48.542;-2.970;2023-03-14T04:39:18;15.00;;;2.47;;
77136;SDS011;66102;48.542;-2.970;2023-03-14T04:41:44;11.93;;;2.10;;
77136;SDS011;66102;48.542;-2.970;2023-03-14T04:44:11;16.65;;;2.53;;
77136;SDS011;66102;48.542;-2.970;2023-03-14T04:46:37;12.63;;;2.10;;
77136;SDS011;66102;48.542;-2.970;2023-03-14T04:49:03;14.55;;;2.38;;
77136;SDS011;66102;48.542;-2.970;2023-03-14T04:51:29;13.18;;;2.17;;
77136;SDS011;66102;48.542;-2.970;2023-03-14T04:53:55;10.70;;;2.25;;
77136;SDS011;66102;48.542;-2.970;2023-03-14T04:56:21;14.18;;;2.25;;
77136;SDS011;66102;48.542;-2.970;2023-03-14T04:58:47;14.07;;;1.85;;
77136;SDS011;66102;48.542;-2.970;2023-03-14T05:01:13;12.63;;;2.03;;
77136;SDS011;66102;48.542;-2.970;2023-03-14T05:03:39;12.27;;;1.90;;
77136;SDS011;66102;48.542;-2.970;2023-03-14T05:06:05;10.82;;;2.05;;
77136;SDS011;66102;48.542;-2.970;2023-03-14T05:08:31;12.48;;;1.92;;
77136;SDS011;66102;48.542;-2.970;2023-03-14T05:10:58;17.55;;;2.33;;
77136;SDS011;66102;48.542;-2.970;2023-03-14T05:13:24;16.92;;;2.20;;
77136;SDS011;66102;48.542;-2.970;2023-03-14T05:15:50;9.85;;;2.28;;
77136;SDS011;66102;48.542;-2.970;2023-03-14T05:18:16;12.80;;;2.40;;
77136;SDS011;66102;48.542;-2.970;2023-03-14T05:20:42;14.77;;;2.20;;
77136;SDS011;66102;48.542;-2.970;2023-03-14T05:23:09;9.07;;;2.22;;
77136;SDS011;66102;48.542;-2.970;2023-03-14T05:25:35;12.82;;;1.83;;
77136;SDS011;66102;48.542;-2.970;2023-03-14T05:28:01;14.65;;;1.95;;
77136;SDS011;66102;48.542;-2.970;2023-03-14T05:30:27;11.38;;;2.17;;
77136;SDS011;66102;48.542;-2.970;2023-03-14T05:32:53;8.18;;;1.83;;
77136;SDS011;66102;48.542;-2.970;2023-03-14T05:35:20;8.90;;;2.53;;
77136;SDS011;66102;48.542;-2.970;2023-03-14T05:37:46;15.50;;;2.67;;
77136;SDS011;66102;48.542;-2.970;2023-03-14T05:40:12;16.02;;;2.42;;
77136;SDS011;66102;48.542;-2.970;2023-03-14T05:42:38;14.40;;;2.10;;
77136;SDS011;66102;48.542;-2.970;2023-03-14T05:45:04;11.10;;;2.13;;
77136;SDS011;66102;48.542;-2.970;2023-03-14T05:47:30;12.07;;;1.90;;
77136;SDS011;66102;48.542;-2.970;2023-03-14T05:49:56;12.20;;;2.45;;
77136;SDS011;66102;48.542;-2.970;2023-03-14T05:52:23;10.52;;;2.17;;
77136;SDS011;66102;48.542;-2.970;2023-03-14T05:54:49;12.98;;;2.47;;
77136;SDS011;66102;48.542;-2.970;2023-03-14T05:57:15;13.45;;;1.90;;
77136;SDS011;66102;48.542;-2.970;2023-03-14T05:59:41;12.57;;;2.00;;
77136;SDS011;66102;48.542;-2.970;2023-03-14T06:02:07;12.50;;;2.38;;
77136;SDS011;66102;48.542;-2.970;2023-03-14T06:04:33;9.40;;;3.20;;
77136;SDS011;66102;48.542;-2.970;2023-03-14T06:06:59;9.55;;;1.75;;
77136;SDS011;66102;48.542;-2.970;2023-03-14T06:09:25;7.82;;;1.70;;
77136;SDS011;66102;48.542;-2.970;2023-03-14T06:11:51;5.20;;;1.30;;
77136;SDS011;66102;48.542;-2.970;2023-03-14T06:14:17;9.68;;;1.50;;
77136;SDS011;66102;48.542;-2.970;2023-03-14T06:16:43;4.95;;;1.20;;
77136;SDS011;66102;48.542;-2.970;2023-03-14T06:19:09;10.02;;;1.77;;
77136;SDS011;66102;48.542;-2.970;2023-03-14T06:21:36;9.98;;;1.40;;
77136;SDS011;66102;48.542;-2.970;2023-03-14T06:24:03;8.63;;;1.42;;
77136;SDS011;66102;48.542;-2.970;2023-03-14T06:26:29;7.82;;;1.70;;
77136;SDS011;66102;48.542;-2.970;2023-03-14T06:28:55;10.07;;;1.63;;
77136;SDS011;66102;48.542;-2.970;2023-03-14T06:31:21;7.63;;;1.48;;
77136;SDS011;66102;48.542;-2.970;2023-03-14T06:33:47;11.95;;;1.77;;
77136;SDS011;66102;48.542;-2.970;2023-03-14T06:36:13;16.08;;;2.70;;
77136;SDS011;66102;48.542;-2.970;2023-03-14T06:38:39;9.23;;;1.75;;
77136;SDS011;66102;48.542;-2.970;2023-03-14T06:41:06;14.20;;;2.03;;
77136;SDS011;66102;48.542;-2.970;2023-03-14T06:43:32;11.85;;;2.38;;
77136;SDS011;66102;48.542;-2.970;2023-03-14T06:45:58;9.70;;;1.75;;
77136;SDS011;66102;48.542;-2.970;2023-03-14T06:48:24;10.20;;;1.90;;
77136;SDS011;66102;48.542;-2.970;2023-03-14T06:50:50;9.65;;;1.90;;
77136;SDS011;66102;48.542;-2.970;2023-03-14T06:53:16;10.07;;;1.67;;
77136;SDS011;66102;48.542;-2.970;2023-03-14T06:55:42;9.23;;;1.52;;
77136;SDS011;66102;48.542;-2.970;2023-03-14T06:58:09;11.25;;;1.98;;
77136;SDS011;66102;48.542;-2.970;2023-03-14T07:00:35;8.00;;;1.90;;
77136;SDS011;66102;48.542;-2.970;2023-03-14T07:03:01;13.32;;;3.08;;
77136;SDS011;66102;48.542;-2.970;2023-03-14T07:05:27;12.82;;;2.15;;
77136;SDS011;66102;48.542;-2.970;2023-03-14T07:07:53;9.13;;;1.75;;
77136;SDS011;66102;48.542;-2.970;2023-03-14T07:10:19;11.32;;;2.13;;
77136;SDS011;66102;48.542;-2.970;2023-03-14T07:12:45;11.95;;;2.08;;
77136;SDS011;66102;48.542;-2.970;2023-03-14T07:15:12;8.75;;;1.63;;
77136;SDS011;66102;48.542;-2.970;2023-03-14T07:17:38;9.55;;;1.50;;
77136;SDS011;66102;48.542;-2.970;2023-03-14T07:20:04;9.93;;;2.17;;
77136;SDS011;66102;48.542;-2.970;2023-03-14T07:22:30;9.35;;;2.20;;
77136;SDS011;66102;48.542;-2.970;2023-03-14T07:24:56;10.18;;;2.00;;
77136;SDS011;66102;48.542;-2.970;2023-03-14T07:27:22;6.60;;;1.45;;
77136;SDS011;66102;48.542;-2.970;2023-03-14T07:29:48;14.63;;;2.30;;
77136;SDS011;66102;48.542;-2.970;2023-03-14T07:32:14;8.13;;;1.65;;
77136;SDS011;66102;48.542;-2.970;2023-03-14T07:34:41;13.90;;;1.75;;
77136;SDS011;66102;48.542;-2.970;2023-03-14T07:37:07;10.82;;;1.80;;
77136;SDS011;66102;48.542;-2.970;2023-03-14T07:39:33;7.43;;;1.48;;
77136;SDS011;66102;48.542;-2.970;2023-03-14T07:42:00;10.57;;;1.90;;
77136;SDS011;66102;48.542;-2.970;2023-03-14T07:44:26;10.38;;;1.58;;
77136;SDS011;66102;48.542;-2.970;2023-03-14T07:46:52;10.63;;;1.67;;
77136;SDS011;66102;48.542;-2.970;2023-03-14T07:49:18;10.18;;;1.50;;
77136;SDS011;66102;48.542;-2.970;2023-03-14T07:51:47;12.57;;;1.63;;
77136;SDS011;66102;48.542;-2.970;2023-03-14T07:54:13;10.63;;;2.50;;
77136;SDS011;66102;48.542;-2.970;2023-03-14T07:56:39;12.15;;;1.63;;
77136;SDS011;66102;48.542;-2.970;2023-03-14T07:59:05;10.93;;;1.90;;
77136;SDS011;66102;48.542;-2.970;2023-03-14T08:01:32;15.35;;;2.58;;
77136;SDS011;66102;48.542;-2.970;2023-03-14T08:03:58;11.50;;;2.50;;
77136;SDS011;66102;48.542;-2.970;2023-03-14T08:06:24;9.55;;;1.73;;
77136;SDS011;66102;48.542;-2.970;2023-03-14T08:08:50;11.57;;;1.85;;
77136;SDS011;66102;48.542;-2.970;2023-03-14T08:11:16;8.48;;;1.60;;
77136;SDS011;66102;48.542;-2.970;2023-03-14T08:13:42;10.10;;;2.03;;
77136;SDS011;66102;48.542;-2.970;2023-03-14T08:16:14;13.85;;;2.33;;
77136;SDS011;66102;48.542;-2.970;2023-03-14T08:18:41;12.57;;;2.20;;
77136;SDS011;66102;48.542;-2.970;2023-03-14T08:21:07;15.60;;;2.28;;
77136;SDS011;66102;48.542;-2.970;2023-03-14T08:23:35;13.15;;;2.38;;
77136;SDS011;66102;48.542;-2.970;2023-03-14T08:26:02;14.88;;;2.97;;
77136;SDS011;66102;48.542;-2.970;2023-03-14T08:28:30;11.63;;;2.13;;
77136;SDS011;66102;48.542;-2.970;2023-03-14T08:30:59;11.02;;;2.13;;
77136;SDS011;66102;48.542;-2.970;2023-03-14T08:33:27;12.68;;;2.10;;
77136;SDS011;66102;48.542;-2.970;2023-03-14T08:35:53;11.10;;;2.17;;
77136;SDS011;66102;48.542;-2.970;2023-03-14T08:38:19;10.90;;;2.00;;
77136;SDS011;66102;48.542;-2.970;2023-03-14T08:40:45;10.82;;;2.00;;
77136;SDS011;66102;48.542;-2.970;2023-03-14T08:43:11;10.02;;;1.92;;
77136;SDS011;66102;48.542;-2.970;2023-03-14T08:45:37;8.77;;;1.40;;
77136;SDS011;66102;48.542;-2.970;2023-03-14T08:48:04;10.48;;;1.50;;
77136;SDS011;66102;48.542;-2.970;2023-03-14T08:50:30;12.57;;;2.00;;
77136;SDS011;66102;48.542;-2.970;2023-03-14T08:52:56;8.85;;;1.40;;
77136;SDS011;66102;48.542;-2.970;2023-03-14T08:55:26;6.85;;;1.20;;
77136;SDS011;66102;48.542;-2.970;2023-03-14T08:57:52;8.85;;;1.52;;
77136;SDS011;66102;48.542;-2.970;2023-03-14T09:00:19;7.13;;;2.08;;
77136;SDS011;66102;48.542;-2.970;2023-03-14T09:02:45;9.18;;;1.83;;
77136;SDS011;66102;48.542;-2.970;2023-03-14T09:05:11;7.53;;;1.38;;
77136;SDS011;66102;48.542;-2.970;2023-03-14T09:07:38;12.35;;;1.92;;
77136;SDS011;66102;48.542;-2.970;2023-03-14T09:10:04;11.25;;;2.28;;
77136;SDS011;66102;48.542;-2.970;2023-03-14T09:12:31;13.82;;;2.28;;
77136;SDS011;66102;48.542;-2.970;2023-03-14T09:14:57;10.05;;;2.00;;
77136;SDS011;66102;48.542;-2.970;2023-03-14T09:17:23;10.70;;;2.15;;
77136;SDS011;66102;48.542;-2.970;2023-03-14T09:19:49;12.35;;;2.40;;
77136;SDS011;66102;48.542;-2.970;2023-03-14T09:22:15;12.45;;;2.22;;
77136;SDS011;66102;48.542;-2.970;2023-03-14T09:24:41;8.90;;;2.08;;
77136;SDS011;66102;48.542;-2.970;2023-03-14T09:27:07;10.65;;;1.73;;
77136;SDS011;66102;48.542;-2.970;2023-03-14T09:29:34;11.15;;;1.90;;
77136;SDS011;66102;48.542;-2.970;2023-03-14T09:32:00;13.43;;;1.98;;
77136;SDS011;66102;48.542;-2.970;2023-03-14T09:34:26;12.88;;;2.10;;
77136;SDS011;66102;48.542;-2.970;2023-03-14T09:36:52;13.80;;;2.20;;
77136;SDS011;66102;48.542;-2.970;2023-03-14T09:39:18;14.20;;;2.70;;
77136;SDS011;66102;48.542;-2.970;2023-03-14T09:41:46;15.80;;;2.65;;
77136;SDS011;66102;48.542;-2.970;2023-03-14T09:44:14;15.50;;;2.47;;
77136;SDS011;66102;48.542;-2.970;2023-03-14T09:46:41;16.17;;;3.00;;
77136;SDS011;66102;48.542;-2.970;2023-03-14T09:49:12;16.88;;;2.53;;
77136;SDS011;66102;48.542;-2.970;2023-03-14T09:51:39;13.70;;;2.28;;
77136;SDS011;66102;48.542;-2.970;2023-03-14T09:54:08;15.93;;;2.28;;
77136;SDS011;66102;48.542;-2.970;2023-03-14T09:56:41;11.50;;;2.30;;
77136;SDS011;66102;48.542;-2.970;2023-03-14T09:59:08;14.00;;;2.20;;
77136;SDS011;66102;48.542;-2.970;2023-03-14T10:04:10;15.13;;;2.38;;
77136;SDS011;66102;48.542;-2.970;2023-03-14T10:06:38;10.05;;;1.80;;
77136;SDS011;66102;48.542;-2.970;2023-03-14T10:09:04;9.80;;;2.17;;
77136;SDS011;66102;48.542;-2.970;2023-03-14T10:11:30;18.77;;;2.60;;
77136;SDS011;66102;48.542;-2.970;2023-03-14T10:14:10;16.23;;;2.80;;
77136;SDS011;66102;48.542;-2.970;2023-03-14T10:16:44;8.90;;;1.65;;
77136;SDS011;66102;48.542;-2.970;2023-03-14T10:19:15;11.93;;;2.35;;
77136;SDS011;66102;48.542;-2.970;2023-03-14T10:21:42;11.23;;;2.15;;
77136;SDS011;66102;48.542;-2.970;2023-03-14T10:26:43;12.75;;;2.72;;
77136;SDS011;66102;48.542;-2.970;2023-03-14T10:29:13;15.82;;;2.30;;
77136;SDS011;66102;48.542;-2.970;2023-03-14T10:32:17;17.23;;;2.40;;
77136;SDS011;66102;48.542;-2.970;2023-03-14T10:36:59;14.68;;;2.45;;
77136;SDS011;66102;48.542;-2.970;2023-03-14T10:39:44;11.27;;;1.90;;
77136;SDS011;66102;48.542;-2.970;2023-03-14T10:44:37;12.88;;;2.28;;
77136;SDS011;66102;48.542;-2.970;2023-03-14T10:47:04;11.48;;;1.98;;
77136;SDS011;66102;48.542;-2.970;2023-03-14T10:49:32;11.38;;;2.53;;
77136;SDS011;66102;48.542;-2.970;2023-03-14T10:54:34;14.15;;;2.15;;
77136;SDS011;66102;48.542;-2.970;2023-03-14T10:57:00;10.13;;;2.63;;
77136;SDS011;66102;48.542;-2.970;2023-03-14T10:59:27;10.40;;;2.13;;
77136;SDS011;66102;48.542;-2.970;2023-03-14T11:01:59;10.70;;;1.55;;
77136;SDS011;66102;48.542;-2.970;2023-03-14T11:07:09;10.50;;;2.13;;
77136;SDS011;66102;48.542;-2.970;2023-03-14T11:14:58;13.80;;;1.83;;
77136;SDS011;66102;48.542;-2.970;2023-03-14T11:17:30;14.65;;;2.35;;
77136;SDS011;66102;48.542;-2.970;2023-03-14T11:22:41;10.13;;;1.70;;
77136;SDS011;66102;48.542;-2.970;2023-03-14T11:27:42;9.70;;;2.20;;
77136;SDS011;66102;48.542;-2.970;2023-03-14T11:35:30;11.15;;;2.45;;
77136;SDS011;66102;48.542;-2.970;2023-03-14T11:40:31;13.00;;;2.30;;
77136;SDS011;66102;48.542;-2.970;2023-03-14T11:45:29;10.15;;;1.90;;
77136;SDS011;66102;48.542;-2.970;2023-03-14T11:50:42;14.30;;;1.95;;
77136;SDS011;66102;48.542;-2.970;2023-03-14T11:53:55;8.70;;;1.73;;
77136;SDS011;66102;48.542;-2.970;2023-03-14T11:55:55;16.83;;;2.45;;
77136;SDS011;66102;48.542;-2.970;2023-03-14T12:00:48;10.82;;;2.28;;
77136;SDS011;66102;48.542;-2.970;2023-03-14T12:08:30;13.40;;;2.40;;
77136;SDS011;66102;48.542;-2.970;2023-03-14T12:10:59;13.20;;;1.90;;
77136;SDS011;66102;48.542;-2.970;2023-03-14T12:13:33;16.20;;;3.42;;
77136;SDS011;66102;48.542;-2.970;2023-03-14T12:16:04;13.23;;;2.70;;
77136;SDS011;66102;48.542;-2.970;2023-03-14T12:18:35;14.40;;;3.05;;
77136;SDS011;66102;48.542;-2.970;2023-03-14T12:21:04;22.05;;;5.07;;
77136;SDS011;66102;48.542;-2.970;2023-03-14T12:26:13;10.55;;;2.25;;
77136;SDS011;66102;48.542;-2.970;2023-03-14T12:34:01;8.98;;;1.80;;
77136;SDS011;66102;48.542;-2.970;2023-03-14T12:39:24;14.15;;;2.28;;
77136;SDS011;66102;48.542;-2.970;2023-03-14T12:41:52;10.63;;;1.88;;
77136;SDS011;66102;48.542;-2.970;2023-03-14T12:46:57;7.80;;;1.77;;
77136;SDS011;66102;48.542;-2.970;2023-03-14T12:49:29;8.32;;;1.90;;
77136;SDS011;66102;48.542;-2.970;2023-03-14T12:52:02;10.25;;;1.80;;
77136;SDS011;66102;48.542;-2.970;2023-03-14T12:54:37;9.18;;;2.00;;
77136;SDS011;66102;48.542;-2.970;2023-03-14T12:59:52;8.75;;;1.70;;
77136;SDS011;66102;48.542;-2.970;2023-03-14T13:02:23;10.27;;;2.10;;
77136;SDS011;66102;48.542;-2.970;2023-03-14T13:04:53;8.98;;;1.50;;
77136;SDS011;66102;48.542;-2.970;2023-03-14T13:10:05;11.25;;;1.90;;
77136;SDS011;66102;48.542;-2.970;2023-03-14T13:12:47;6.43;;;1.05;;
77136;SDS011;66102;48.542;-2.970;2023-03-14T13:15:24;8.23;;;1.58;;
77136;SDS011;66102;48.542;-2.970;2023-03-14T13:17:51;7.18;;;1.48;;
77136;SDS011;66102;48.542;-2.970;2023-03-14T13:20:22;7.03;;;1.40;;
77136;SDS011;66102;48.542;-2.970;2023-03-14T13:22:49;5.13;;;1.33;;
77136;SDS011;66102;48.542;-2.970;2023-03-14T13:25:15;5.03;;;1.00;;
77136;SDS011;66102;48.542;-2.970;2023-03-14T13:27:46;8.30;;;1.38;;
77136;SDS011;66102;48.542;-2.970;2023-03-14T13:32:42;10.93;;;1.70;;
77136;SDS011;66102;48.542;-2.970;2023-03-14T13:37:42;5.28;;;1.23;;
77136;SDS011;66102;48.542;-2.970;2023-03-14T13:40:17;8.65;;;1.20;;
77136;SDS011;66102;48.542;-2.970;2023-03-14T13:42:44;9.43;;;1.55;;
77136;SDS011;66102;48.542;-2.970;2023-03-14T13:45:11;9.43;;;1.13;;
77136;SDS011;66102;48.542;-2.970;2023-03-14T13:47:38;7.80;;;1.38;;
77136;SDS011;66102;48.542;-2.970;2023-03-14T13:50:11;9.77;;;3.05;;
77136;SDS011;66102;48.542;-2.970;2023-03-14T13:52:38;11.32;;;1.48;;
77136;SDS011;66102;48.542;-2.970;2023-03-14T13:55:05;8.32;;;1.23;;
77136;SDS011;66102;48.542;-2.970;2023-03-14T13:57:51;9.85;;;1.40;;
77136;SDS011;66102;48.542;-2.970;2023-03-14T14:00:22;8.35;;;1.60;;
77136;SDS011;66102;48.542;-2.970;2023-03-14T14:02:51;6.60;;;1.42;;
77136;SDS011;66102;48.542;-2.970;2023-03-14T14:05:18;6.65;;;1.13;;
77136;SDS011;66102;48.542;-2.970;2023-03-14T14:07:44;10.02;;;1.50;;
77136;SDS011;66102;48.542;-2.970;2023-03-14T14:10:11;5.82;;;1.20;;
77136;SDS011;66102;48.542;-2.970;2023-03-14T14:12:39;9.02;;;1.80;;
77136;SDS011;66102;48.542;-2.970;2023-03-14T14:15:16;8.38;;;1.75;;
77136;SDS011;66102;48.542;-2.970;2023-03-14T14:17:46;8.80;;;1.77;;
77136;SDS011;66102;48.542;-2.970;2023-03-14T14:20:19;9.82;;;1.92;;
77136;SDS011;66102;48.542;-2.970;2023-03-14T14:22:46;11.85;;;1.80;;
77136;SDS011;66102;48.542;-2.970;2023-03-14T14:25:13;7.53;;;1.23;;
77136;SDS011;66102;48.542;-2.970;2023-03-14T14:27:41;6.90;;;1.45;;
77136;SDS011;66102;48.542;-2.970;2023-03-14T14:32:46;5.13;;;1.08;;
77136;SDS011;66102;48.542;-2.970;2023-03-14T14:35:26;8.88;;;1.50;;
77136;SDS011;66102;48.542;-2.970;2023-03-14T14:37:56;10.13;;;2.08;;
77136;SDS011;66102;48.542;-2.970;2023-03-14T14:40:24;7.72;;;1.38;;
77136;SDS011;66102;48.542;-2.970;2023-03-14T14:42:50;7.20;;;1.45;;
77136;SDS011;66102;48.542;-2.970;2023-03-14T14:45:17;5.13;;;1.02;;
77136;SDS011;66102;48.542;-2.970;2023-03-14T14:47:51;10.77;;;1.90;;
77136;SDS011;66102;48.542;-2.970;2023-03-14T14:51:00;11.05;;;1.65;;
77136;SDS011;66102;48.542;-2.970;2023-03-14T14:55:52;8.10;;;1.75;;
77136;SDS011;66102;48.542;-2.970;2023-03-14T14:58:29;6.35;;;1.48;;
77136;SDS011;66102;48.542;-2.970;2023-03-14T15:00:59;10.07;;;1.40;;
77136;SDS011;66102;48.542;-2.970;2023-03-14T15:03:28;8.50;;;1.75;;
77136;SDS011;66102;48.542;-2.970;2023-03-14T15:05:55;6.70;;;1.58;;
77136;SDS011;66102;48.542;-2.970;2023-03-14T15:08:21;8.70;;;1.60;;
77136;SDS011;66102;48.542;-2.970;2023-03-14T15:10:48;7.93;;;1.20;;
77136;SDS011;66102;48.542;-2.970;2023-03-14T15:13:14;5.07;;;1.15;;
77136;SDS011;66102;48.542;-2.970;2023-03-14T15:15:40;7.13;;;1.33;;
77136;SDS011;66102;48.542;-2.970;2023-03-14T15:18:14;11.00;;;1.70;;
77136;SDS011;66102;48.542;-2.970;2023-03-14T15:20:41;6.45;;;1.52;;
77136;SDS011;66102;48.542;-2.970;2023-03-14T15:23:09;6.63;;;1.20;;
77136;SDS011;66102;48.542;-2.970;2023-03-14T15:25:35;8.32;;;1.40;;
77136;SDS011;66102;48.542;-2.970;2023-03-14T15:28:03;9.93;;;2.75;;
77136;SDS011;66102;48.542;-2.970;2023-03-14T15:30:29;6.05;;;1.67;;
77136;SDS011;66102;48.542;-2.970;2023-03-14T15:32:55;7.32;;;1.27;;
77136;SDS011;66102;48.542;-2.970;2023-03-14T15:35:21;4.63;;;1.02;;
77136;SDS011;66102;48.542;-2.970;2023-03-14T15:37:47;7.18;;;1.15;;
77136;SDS011;66102;48.542;-2.970;2023-03-14T15:40:13;8.85;;;1.48;;
77136;SDS011;66102;48.542;-2.970;2023-03-14T15:42:41;8.52;;;1.30;;
77136;SDS011;66102;48.542;-2.970;2023-03-14T15:45:07;9.13;;;2.15;;
77136;SDS011;66102;48.542;-2.970;2023-03-14T15:47:34;7.00;;;1.40;;
77136;SDS011;66102;48.542;-2.970;2023-03-14T15:50:00;10.48;;;1.65;;